Time;durP1;ratioP1;P1;durP2;ratioP2;P2;SDS_P1;SDS_P2;PMS_P1;PMS_P2;Temp;Humidity;BMP_temperature;BMP_pressure;BME280_temperature;BME280_humidity;BME280_pressure;Samples;Min_cycle;Max_cycle;Signal;HPM_P1;HPM_P2
2022/05/19 00:01:01;;;;;;;5.72;2.50;;;;;;;;;;5013308;28;20373;-87
2022/05/19 00:03:27;;;;;;;3.20;2.30;;;;;;;;;;5013510;28;20048;-88
2022/05/19 00:05:58;;;;;;;3.08;2.55;;;;;;;;;;5013485;28;20033;-88
2022/05/19 00:08:24;;;;;;;4.03;2.40;;;;;;;;;;5011687;28;20037;-87
2022/05/19 00:10:50;;;;;;;6.38;2.45;;;;;;;;;;5013703;28;20022;-88
2022/05/19 00:13:16;;;;;;;3.75;2.35;;;;;;;;;;5012693;28;20216;-88
2022/05/19 00:15:45;;;;;;;5.50;2.20;;;;;;;;;;5011975;28;20076;-87
2022/05/19 00:18:11;;;;;;;7.03;2.92;;;;;;;;;;5027499;28;20085;-88
2022/05/19 00:20:37;;;;;;;4.40;2.20;;;;;;;;;;5002638;28;20495;-88
2022/05/19 00:23:03;;;;;;;5.68;2.25;;;;;;;;;;5012593;28;20057;-87
2022/05/19 00:25:30;;;;;;;4.45;2.38;;;;;;;;;;5011660;28;20110;-88
2022/05/19 00:27:56;;;;;;;3.75;2.42;;;;;;;;;;5012911;28;20038;-88
2022/05/19 00:30:22;;;;;;;4.13;2.17;;;;;;;;;;5012929;28;20038;-87
2022/05/19 00:32:48;;;;;;;4.40;2.42;;;;;;;;;;5012945;28;20034;-87
2022/05/19 00:35:14;;;;;;;6.45;2.55;;;;;;;;;;5013985;28;20057;-87
2022/05/19 00:37:42;;;;;;;6.55;2.08;;;;;;;;;;5011834;28;20044;-87
2022/05/19 00:40:09;;;;;;;6.72;2.63;;;;;;;;;;5011627;28;20113;-87
2022/05/19 00:42:44;;;;;;;4.63;2.78;;;;;;;;;;5013832;28;20121;-87
2022/05/19 00:45:11;;;;;;;4.90;2.42;;;;;;;;;;5011924;28;20044;-88
2022/05/19 00:47:56;;;;;;;6.15;2.42;;;;;;;;;;5011250;28;20037;-88
2022/05/19 00:50:28;;;;;;;3.88;2.80;;;;;;;;;;5011603;28;20064;-86
2022/05/19 00:52:58;;;;;;;6.30;3.03;;;;;;;;;;5013036;28;20088;-87
2022/05/19 00:55:29;;;;;;;3.92;2.63;;;;;;;;;;5012432;28;20026;-85
2022/05/19 00:57:58;;;;;;;5.28;2.53;;;;;;;;;;5011926;28;20026;-86
2022/05/19 01:00:24;;;;;;;4.63;2.30;;;;;;;;;;5010773;28;20176;-86
2022/05/19 01:02:58;;;;;;;3.10;2.78;;;;;;;;;;5026404;28;20026;-87
2022/05/19 01:05:36;;;;;;;4.20;2.47;;;;;;;;;;5016361;28;20100;-86
2022/05/19 01:08:09;;;;;;;7.55;2.78;;;;;;;;;;5012679;28;20037;-87
2022/05/19 01:10:36;;;;;;;3.90;2.70;;;;;;;;;;5012337;28;20032;-85
2022/05/19 01:13:02;;;;;;;6.32;2.97;;;;;;;;;;5012009;28;20046;-87
2022/05/19 01:15:29;;;;;;;5.22;2.35;;;;;;;;;;5011433;28;20052;-86
2022/05/19 01:17:55;;;;;;;7.88;2.97;;;;;;;;;;5011268;28;20057;-86
2022/05/19 01:20:23;;;;;;;3.72;2.28;;;;;;;;;;5012071;28;20109;-86
2022/05/19 01:22:55;;;;;;;4.28;2.90;;;;;;;;;;5010455;28;20034;-87
2022/05/19 01:25:30;;;;;;;6.32;2.95;;;;;;;;;;5011994;28;20029;-86
2022/05/19 01:27:56;;;;;;;5.53;2.58;;;;;;;;;;5012699;28;20044;-86
2022/05/19 01:30:22;;;;;;;6.32;2.50;;;;;;;;;;5012494;28;20030;-88
2022/05/19 01:32:49;;;;;;;4.65;2.50;;;;;;;;;;5011257;28;20032;-87
2022/05/19 01:35:15;;;;;;;3.50;2.33;;;;;;;;;;5011687;28;20149;-87
2022/05/19 01:37:41;;;;;;;3.53;2.25;;;;;;;;;;5011355;28;20040;-87
2022/05/19 01:40:19;;;;;;;5.85;2.50;;;;;;;;;;5012749;28;20030;-87
2022/05/19 01:42:55;;;;;;;6.47;2.92;;;;;;;;;;5019682;28;20033;-87
2022/05/19 01:45:35;;;;;;;4.60;2.45;;;;;;;;;;5012605;28;20030;-86
2022/05/19 01:48:07;;;;;;;3.25;2.60;;;;;;;;;;5012321;28;20026;-87
2022/05/19 01:50:39;;;;;;;4.60;2.63;;;;;;;;;;5012047;28;20105;-87
2022/05/19 01:53:13;;;;;;;3.78;2.70;;;;;;;;;;5010819;28;20137;-88
2022/05/19 01:55:49;;;;;;;4.03;3.03;;;;;;;;;;5010696;28;20026;-84
2022/05/19 01:58:24;;;;;;;3.72;2.95;;;;;;;;;;5012108;28;20029;-85
2022/05/19 02:00:54;;;;;;;4.82;2.70;;;;;;;;;;5012514;28;20037;-87
2022/05/19 02:03:28;;;;;;;6.03;2.92;;;;;;;;;;5016067;28;20026;-87
2022/05/19 02:05:57;;;;;;;6.28;3.20;;;;;;;;;;5014828;28;20387;-85
2022/05/19 02:08:28;;;;;;;5.97;3.03;;;;;;;;;;5014698;28;20044;-87
2022/05/19 02:10:54;;;;;;;;;;;;;;;;;;5014556;28;20030;-87
2022/05/19 02:13:21;;;;;;;5.30;2.47;;;;;;;;;;5014992;28;19916;-85
2022/05/19 02:15:49;;;;;;;3.60;2.55;;;;;;;;;;5015112;28;20109;-86
2022/05/19 02:18:17;;;;;;;4.30;2.42;;;;;;;;;;5015658;28;20061;-86
2022/05/19 02:20:44;;;;;;;4.43;2.50;;;;;;;;;;5016899;28;20022;-86
2022/05/19 02:23:11;;;;;;;5.78;2.60;;;;;;;;;;5015879;28;20056;-85
2022/05/19 02:25:42;;;;;;;3.85;2.78;;;;;;;;;;5015333;28;20391;-86
2022/05/19 02:28:08;;;;;;;3.58;2.58;;;;;;;;;;5017833;28;20029;-87
2022/05/19 02:30:36;;;;;;;3.13;2.67;;;;;;;;;;5017050;28;20522;-87
2022/05/19 02:33:02;;;;;;;6.00;2.70;;;;;;;;;;5015864;28;20053;-86
2022/05/19 02:35:28;;;;;;;4.72;2.42;;;;;;;;;;5017454;28;20484;-86
2022/05/19 02:37:55;;;;;;;8.00;2.90;;;;;;;;;;5018247;28;20037;-84
2022/05/19 02:40:22;;;;;;;3.10;2.47;;;;;;;;;;5016907;28;20061;-88
2022/05/19 02:42:48;;;;;;;5.68;3.25;;;;;;;;;;5032265;28;20077;-91
2022/05/19 02:45:15;;;;;;;3.53;2.80;;;;;;;;;;5038494;28;20018;-89
2022/05/19 02:47:41;;;;;;;4.32;2.72;;;;;;;;;;5038752;28;20026;-88
2022/05/19 02:50:08;;;;;;;5.93;2.78;;;;;;;;;;5038957;28;20010;-89
2022/05/19 02:52:34;;;;;;;3.80;3.03;;;;;;;;;;5039002;28;20010;-87
2022/05/19 02:55:00;;;;;;;5.78;2.63;;;;;;;;;;5039075;28;20063;-87
2022/05/19 02:57:26;;;;;;;6.38;2.97;;;;;;;;;;5038399;28;20034;-89
2022/05/19 02:59:52;;;;;;;4.38;2.95;;;;;;;;;;5038286;28;20010;-89
2022/05/19 03:02:18;;;;;;;4.78;2.47;;;;;;;;;;5039024;28;20018;-89
2022/05/19 03:04:44;;;;;;;6.85;3.28;;;;;;;;;;5038340;28;20033;-88
2022/05/19 03:07:10;;;;;;;3.60;3.17;;;;;;;;;;5040177;28;20041;-89
2022/05/19 03:09:36;;;;;;;6.00;3.13;;;;;;;;;;5039675;28;20013;-89
2022/05/19 03:12:02;;;;;;;8.93;3.08;;;;;;;;;;5039291;28;20018;-88
2022/05/19 03:14:32;;;;;;;5.30;3.30;;;;;;;;;;5039589;28;20060;-88
2022/05/19 03:16:58;;;;;;;6.65;2.92;;;;;;;;;;5067878;23;20029;-89
2022/05/19 03:19:24;;;;;;;3.58;3.08;;;;;;;;;;5064844;28;20037;-88
2022/05/19 03:21:50;;;;;;;4.15;2.90;;;;;;;;;;5078605;28;20025;-86
2022/05/19 03:24:15;;;;;;;6.32;3.33;;;;;;;;;;5076925;28;20025;-86
2022/05/19 03:26:41;;;;;;;4.80;3.03;;;;;;;;;;5079427;28;20040;-87
2022/05/19 03:29:08;;;;;;;5.72;3.22;;;;;;;;;;5079644;28;20016;-88
2022/05/19 03:31:34;;;;;;;6.40;3.22;;;;;;;;;;5078186;28;20036;-88
2022/05/19 03:34:01;;;;;;;6.32;3.08;;;;;;;;;;5077986;28;20066;-88
2022/05/19 03:36:27;;;;;;;5.35;2.85;;;;;;;;;;5078697;28;20024;-87
2022/05/19 03:38:53;;;;;;;5.13;3.03;;;;;;;;;;5078871;28;20031;-88
2022/05/19 03:41:19;;;;;;;3.58;2.97;;;;;;;;;;5078515;28;20013;-87
2022/05/19 03:43:45;;;;;;;4.75;3.17;;;;;;;;;;5078088;28;20017;-87
2022/05/19 03:46:12;;;;;;;4.55;3.00;;;;;;;;;;5078928;28;20017;-87
2022/05/19 03:48:38;;;;;;;9.68;3.28;;;;;;;;;;5078151;28;20016;-87
2022/05/19 03:51:07;;;;;;;4.40;3.00;;;;;;;;;;5079215;28;20009;-88
2022/05/19 03:53:33;;;;;;;4.90;3.35;;;;;;;;;;5078141;28;20033;-88
2022/05/19 03:55:59;;;;;;;3.70;2.90;;;;;;;;;;5078100;28;20013;-88
2022/05/19 03:58:25;;;;;;;4.05;3.17;;;;;;;;;;5079394;28;20051;-88
2022/05/19 04:00:51;;;;;;;8.40;3.22;;;;;;;;;;5077989;28;20024;-89
2022/05/19 04:03:17;;;;;;;4.15;2.83;;;;;;;;;;5078118;28;20037;-89
2022/05/19 04:05:44;;;;;;;4.80;2.75;;;;;;;;;;5078404;28;20013;-89
2022/05/19 04:08:10;;;;;;;5.25;3.30;;;;;;;;;;5094410;28;20021;-90
2022/05/19 04:10:42;;;;;;;4.63;3.20;;;;;;;;;;5078001;28;20035;-88
2022/05/19 04:13:08;;;;;;;5.28;3.13;;;;;;;;;;5077705;28;20021;-89
2022/05/19 04:15:34;;;;;;;4.97;3.13;;;;;;;;;;5077677;28;20108;-89
2022/05/19 04:18:00;;;;;;;4.60;3.42;;;;;;;;;;5077762;28;20025;-88
2022/05/19 04:20:30;;;;;;;4.05;3.03;;;;;;;;;;5077906;28;20025;-90
2022/05/19 04:22:56;;;;;;;6.45;3.30;;;;;;;;;;5094051;28;20035;-88
2022/05/19 04:25:22;;;;;;;4.63;3.42;;;;;;;;;;5077392;28;20032;-87
2022/05/19 04:27:48;;;;;;;4.78;2.88;;;;;;;;;;5076867;28;20084;-87
2022/05/19 04:30:14;;;;;;;7.93;3.63;;;;;;;;;;5090238;28;20024;-88
2022/05/19 04:32:40;;;;;;;5.07;3.45;;;;;;;;;;5093948;28;20026;-87
2022/05/19 04:35:06;;;;;;;9.55;3.78;;;;;;;;;;5094173;28;20084;-87
2022/05/19 04:37:32;;;;;;;4.07;3.00;;;;;;;;;;5078082;28;20071;-87
2022/05/19 04:40:00;;;;;;;6.20;3.80;;;;;;;;;;5082566;28;20025;-84
2022/05/19 04:42:26;;;;;;;6.72;3.70;;;;;;;;;;5070062;28;20098;-87
2022/05/19 04:44:54;;;;;;;9.13;3.30;;;;;;;;;;5076580;28;20017;-86
2022/05/19 04:47:20;;;;;;;4.75;3.30;;;;;;;;;;5077804;28;20045;-85
2022/05/19 04:49:46;;;;;;;5.30;2.83;;;;;;;;;;5077998;28;20009;-88
2022/05/19 04:52:12;;;;;;;6.95;3.08;;;;;;;;;;5077145;28;20032;-86
2022/05/19 04:54:38;;;;;;;5.45;3.17;;;;;;;;;;5077685;28;20029;-88
2022/05/19 04:57:04;;;;;;;5.18;2.90;;;;;;;;;;5078362;28;20032;-87
2022/05/19 04:59:31;;;;;;;4.88;3.47;;;;;;;;;;5078412;28;20025;-85
2022/05/19 05:01:57;;;;;;;4.07;3.38;;;;;;;;;;5078322;28;20039;-87
2022/05/19 05:04:26;;;;;;;3.70;2.88;;;;;;;;;;5078560;28;20016;-88
2022/05/19 05:06:52;;;;;;;5.78;2.90;;;;;;;;;;5078629;28;20005;-89
2022/05/19 05:09:18;;;;;;;5.10;3.08;;;;;;;;;;5077821;28;20009;-90
2022/05/19 05:11:44;;;;;;;5.05;2.83;;;;;;;;;;5077975;28;20028;-88
2022/05/19 05:14:10;;;;;;;5.10;3.08;;;;;;;;;;5077809;28;20016;-90
2022/05/19 05:16:38;;;;;;;3.83;3.28;;;;;;;;;;5078185;28;20048;-90
2022/05/19 05:19:05;;;;;;;4.03;3.38;;;;;;;;;;5078147;28;20021;-90
2022/05/19 05:21:31;;;;;;;4.78;3.10;;;;;;;;;;5076849;28;20009;-88
2022/05/19 05:23:57;;;;;;;5.03;2.70;;;;;;;;;;5077126;28;20021;-90
2022/05/19 05:26:23;;;;;;;4.70;3.17;;;;;;;;;;5077419;28;20047;-91
2022/05/19 05:28:50;;;;;;;4.85;2.75;;;;;;;;;;5076283;28;20009;-89
2022/05/19 05:31:16;;;;;;;6.43;2.92;;;;;;;;;;5023430;23;20054;-85
2022/05/19 05:33:41;;;;;;;4.53;2.90;;;;;;;;;;4995957;28;20400;-84
2022/05/19 05:36:07;;;;;;;5.47;2.85;;;;;;;;;;4996600;28;20018;-86
2022/05/19 05:38:33;;;;;;;8.52;2.70;;;;;;;;;;4999187;28;20026;-85
2022/05/19 05:41:02;;;;;;;3.30;2.90;;;;;;;;;;4993785;28;20030;-85
2022/05/19 05:43:28;;;;;;;5.47;3.10;;;;;;;;;;4976611;28;20106;-84
2022/05/19 05:46:03;;;;;;;3.60;2.70;;;;;;;;;;4986282;28;20547;-83
2022/05/19 05:48:29;;;;;;;4.63;2.85;;;;;;;;;;4996113;28;20105;-83
2022/05/19 05:50:55;;;;;;;6.45;2.80;;;;;;;;;;4983380;28;20058;-85
2022/05/19 05:53:21;;;;;;;4.68;2.78;;;;;;;;;;4975658;28;20396;-84
2022/05/19 05:55:47;;;;;;;3.25;2.63;;;;;;;;;;4974625;28;20100;-83
2022/05/19 05:58:13;;;;;;;5.82;3.03;;;;;;;;;;4975526;28;20481;-85
2022/05/19 06:00:39;;;;;;;7.75;3.05;;;;;;;;;;4974421;28;20042;-83
2022/05/19 06:03:05;;;;;;;5.07;3.03;;;;;;;;;;4977216;28;20030;-85
2022/05/19 06:05:32;;;;;;;5.13;2.90;;;;;;;;;;4976782;28;20026;-85
2022/05/19 06:07:58;;;;;;;3.92;2.75;;;;;;;;;;4976501;28;20041;-85
2022/05/19 06:10:24;;;;;;;6.40;2.85;;;;;;;;;;4978960;28;20106;-85
2022/05/19 06:12:50;;;;;;;4.30;2.97;;;;;;;;;;4993062;28;20483;-85
2022/05/19 06:15:16;;;;;;;3.55;2.50;;;;;;;;;;4995607;28;20026;-84
2022/05/19 06:17:42;;;;;;;4.10;2.67;;;;;;;;;;4995566;28;20104;-84
2022/05/19 06:20:10;;;;;;;3.08;2.50;;;;;;;;;;4993922;28;20057;-84
2022/05/19 06:22:36;;;;;;;7.38;3.30;;;;;;;;;;4995848;28;20026;-85
2022/05/19 06:25:02;;;;;;;3.33;2.50;;;;;;;;;;4982531;28;20034;-85
2022/05/19 06:27:28;;;;;;;3.38;2.78;;;;;;;;;;4974665;28;20031;-86
2022/05/19 06:29:54;;;;;;;3.55;2.75;;;;;;;;;;4975707;28;20089;-86
2022/05/19 06:32:20;;;;;;;3.55;2.88;;;;;;;;;;4975852;28;20030;-85
2022/05/19 06:34:46;;;;;;;8.63;2.65;;;;;;;;;;4974698;28;20031;-84
2022/05/19 06:37:13;;;;;;;4.22;2.80;;;;;;;;;;4978534;28;20030;-86
2022/05/19 06:39:39;;;;;;;5.10;2.80;;;;;;;;;;4982312;28;20034;-85
2022/05/19 06:42:11;;;;;;;5.15;2.70;;;;;;;;;;4976758;28;20015;-85
2022/05/19 06:44:38;;;;;;;4.85;2.35;;;;;;;;;;4983402;28;20026;-86
2022/05/19 06:47:10;;;;;;;5.00;2.60;;;;;;;;;;4990231;28;20117;-86
2022/05/19 06:49:36;;;;;;;3.40;2.60;;;;;;;;;;4982424;28;20022;-86
2022/05/19 06:52:03;;;;;;;3.83;2.30;;;;;;;;;;4995964;28;20106;-85
2022/05/19 06:54:29;;;;;;;5.50;2.70;;;;;;;;;;4977515;28;20400;-84
2022/05/19 06:56:55;;;;;;;3.42;2.47;;;;;;;;;;4978309;28;20536;-86
2022/05/19 06:59:22;;;;;;;5.07;2.65;;;;;;;;;;4992916;28;20037;-85
2022/05/19 07:01:48;;;;;;;4.20;2.38;;;;;;;;;;4994119;28;20488;-86
2022/05/19 07:04:15;;;;;;;4.75;2.90;;;;;;;;;;4996635;28;20030;-86
2022/05/19 07:06:41;;;;;;;6.07;2.97;;;;;;;;;;4994849;28;20022;-86
2022/05/19 07:09:07;;;;;;;5.25;2.60;;;;;;;;;;4995026;28;20030;-86
2022/05/19 07:11:34;;;;;;;3.55;2.35;;;;;;;;;;5006510;28;20026;-86
2022/05/19 07:14:02;;;;;;;5.35;3.10;;;;;;;;;;5013886;28;20034;-86
2022/05/19 07:16:29;;;;;;;5.45;2.47;;;;;;;;;;5012085;28;20122;-87
2022/05/19 07:20:43;;;;;;;3.55;2.42;;;;;;;;;;5002193;28;20030;-86
2022/05/19 07:21:42;;;;;;;5.00;2.80;;;;;;;;;;5013429;28;20015;-85
2022/05/19 07:24:09;;;;;;;2.72;2.35;;;;;;;;;;5013686;28;20053;-86
2022/05/19 07:26:35;;;;;;;5.45;2.50;;;;;;;;;;5000614;28;20026;-84
2022/05/19 07:29:01;;;;;;;3.20;2.30;;;;;;;;;;4974627;28;20034;-85
2022/05/19 07:31:28;;;;;;;5.10;2.55;;;;;;;;;;4974084;28;20094;-85
2022/05/19 07:33:54;;;;;;;4.50;2.92;;;;;;;;;;4974473;28;20035;-85
2022/05/19 07:36:21;;;;;;;2.50;2.08;;;;;;;;;;4974723;28;20038;-85
2022/05/19 07:38:46;;;;;;;4.75;2.53;;;;;;;;;;4982827;28;20034;-84
2022/05/19 07:41:12;;;;;;;3.83;2.67;;;;;;;;;;4998223;28;20033;-85
2022/05/19 07:43:41;;;;;;;2.45;2.25;;;;;;;;;;4999630;28;20050;-85
2022/05/19 07:46:08;;;;;;;5.80;2.40;;;;;;;;;;4991504;28;20035;-85
2022/05/19 07:48:35;;;;;;;4.88;2.15;;;;;;;;;;5003029;28;20029;-85
2022/05/19 07:51:02;;;;;;;4.90;2.50;;;;;;;;;;5009718;28;20022;-85
2022/05/19 07:53:28;;;;;;;5.30;2.78;;;;;;;;;;5006812;28;20578;-84
2022/05/19 07:55:54;;;;;;;4.85;3.03;;;;;;;;;;4988515;28;20034;-85
2022/05/19 07:58:20;;;;;;;6.95;2.92;;;;;;;;;;4985791;28;20073;-85
2022/05/19 08:00:46;;;;;;;4.88;2.78;;;;;;;;;;4993942;28;20026;-85
2022/05/19 08:03:13;;;;;;;4.60;2.63;;;;;;;;;;4993027;28;20025;-86
2022/05/19 08:05:39;;;;;;;7.80;2.83;;;;;;;;;;4991914;28;20049;-86
2022/05/19 08:08:05;;;;;;;5.90;2.88;;;;;;;;;;4991424;28;20026;-84
2022/05/19 08:10:31;;;;;;;16.90;3.30;;;;;;;;;;4993140;28;20030;-84
2022/05/19 08:15:44;;;;;;;7.15;3.38;;;;;;;;;;4990421;28;20041;-85
2022/05/19 08:18:10;;;;;;;6.05;3.42;;;;;;;;;;4987673;28;20022;-85
2022/05/19 08:20:39;;;;;;;8.35;3.95;;;;;;;;;;4993330;28;20037;-85
2022/05/19 08:23:05;;;;;;;5.57;2.50;;;;;;;;;;4987965;28;20025;-85
2022/05/19 08:25:31;;;;;;;5.05;2.80;;;;;;;;;;5013425;28;20396;-85
2022/05/19 08:27:58;;;;;;;5.35;2.72;;;;;;;;;;5016978;28;20026;-85
2022/05/19 08:30:24;;;;;;;6.68;3.05;;;;;;;;;;5011601;28;20034;-86
2022/05/19 08:32:54;;;;;;;9.05;2.92;;;;;;;;;;5013534;28;20030;-85
2022/05/19 08:35:20;;;;;;;4.13;2.60;;;;;;;;;;5014383;28;20109;-85
2022/05/19 08:37:47;;;;;;;14.43;2.42;;;;;;;;;;5013757;28;20045;-86
2022/05/19 08:40:13;;;;;;;7.68;2.85;;;;;;;;;;5027347;28;20038;-86
2022/05/19 08:42:45;;;;;;;11.30;2.90;;;;;;;;;;5015254;28;20106;-85
2022/05/19 08:45:16;;;;;;;8.88;2.92;;;;;;;;;;4987773;28;20647;-85
2022/05/19 08:47:44;;;;;;;;;;;;;;;;;;4973397;28;20026;-85
2022/05/19 08:50:33;;;;;;;6.03;2.78;;;;;;;;;;4979119;28;19906;-84
2022/05/19 08:53:12;;;;;;;;;;;;;;;;;;;;;
2022/05/19 08:56:04;;;;;;;10.40;2.92;;;;;;;;;;4989470;28;20039;-84
2022/05/19 08:58:51;;;;;;;7.82;2.90;;;;;;;;;;4991106;28;20057;-85
2022/05/19 09:02:14;;;;;;;5.00;2.88;;;;;;;;;;4991742;28;20038;-84
2022/05/19 09:04:55;;;;;;;6.75;2.90;;;;;;;;;;5003978;28;20007;-84
2022/05/19 09:10:09;;;;;;;3.30;2.38;;;;;;;;;;4992595;28;20033;-84
2022/05/19 09:12:39;;;;;;;7.68;2.63;;;;;;;;;;4996403;28;20038;-86
2022/05/19 09:15:07;;;;;;;6.95;2.58;;;;;;;;;;4994514;28;20027;-85
2022/05/19 09:17:36;;;;;;;4.72;2.75;;;;;;;;;;4995723;28;20039;-85
2022/05/19 09:20:05;;;;;;;5.60;2.80;;;;;;;;;;4996244;28;20040;-85
2022/05/19 09:22:33;;;;;;;5.28;3.13;;;;;;;;;;4993899;28;20027;-86
2022/05/19 09:25:02;;;;;;;6.05;3.17;;;;;;;;;;4981960;28;20019;-85
2022/05/19 09:27:28;;;;;;;6.45;2.60;;;;;;;;;;4981126;28;20031;-86
2022/05/19 09:29:55;;;;;;;5.18;2.28;;;;;;;;;;4980891;28;20038;-85
2022/05/19 09:32:37;;;;;;;6.63;2.28;;;;;;;;;;4981801;28;20036;-85
2022/05/19 09:35:22;;;;;;;7.03;2.55;;;;;;;;;;4980550;28;20031;-84
2022/05/19 09:37:51;;;;;;;4.15;3.28;;;;;;;;;;4977839;28;20480;-84
2022/05/19 09:40:21;;;;;;;4.32;2.47;;;;;;;;;;4995990;28;20025;-85
2022/05/19 09:42:50;;;;;;;10.18;2.92;;;;;;;;;;4990302;28;20476;-84
2022/05/19 09:45:19;;;;;;;6.63;3.22;;;;;;;;;;4976234;28;20035;-86
2022/05/19 09:47:49;;;;;;;7.72;3.05;;;;;;;;;;4976189;28;20473;-86
2022/05/19 09:50:17;;;;;;;5.82;2.42;;;;;;;;;;4984807;28;20034;-87
2022/05/19 09:52:43;;;;;;;4.45;2.17;;;;;;;;;;5004497;28;20510;-87
2022/05/19 09:55:10;;;;;;;5.97;2.50;;;;;;;;;;4994286;28;20045;-87
2022/05/19 09:57:53;;;;;;;5.70;2.65;;;;;;;;;;4997088;28;20030;-87
2022/05/19 10:00:25;;;;;;;3.45;2.47;;;;;;;;;;4993121;28;20030;-86
2022/05/19 10:02:55;;;;;;;5.05;2.28;;;;;;;;;;4994134;28;20061;-86
2022/05/19 10:05:25;;;;;;;4.53;2.55;;;;;;;;;;4993796;28;20641;-85
2022/05/19 10:07:56;;;;;;;5.50;2.17;;;;;;;;;;4990056;28;20046;-85
2022/05/19 10:10:26;;;;;;;8.90;2.72;;;;;;;;;;5000913;28;20014;-85
2022/05/19 10:12:56;;;;;;;8.68;2.55;;;;;;;;;;4997162;28;20420;-85
2022/05/19 10:15:31;;;;;;;5.25;2.20;;;;;;;;;;5014596;28;20037;-86
2022/05/19 10:18:22;;;;;;;5.25;2.35;;;;;;;;;;5013921;28;20511;-86
2022/05/19 10:21:11;;;;;;;3.85;2.08;;;;;;;;;;4993391;28;20033;-86
2022/05/19 10:23:39;;;;;;;4.13;2.35;;;;;;;;;;4972994;28;20039;-86
2022/05/19 10:26:08;;;;;;;7.22;2.22;;;;;;;;;;4994483;28;20121;-87
2022/05/19 10:31:59;;;;;;;4.50;2.35;;;;;;;;;;4996876;28;20569;-87
2022/05/19 10:34:37;;;;;;;4.93;2.65;;;;;;;;;;4978607;28;20027;-86
2022/05/19 10:37:24;;;;;;;7.32;2.80;;;;;;;;;;4991759;28;20023;-86
2022/05/19 10:39:55;;;;;;;9.88;3.03;;;;;;;;;;4995832;28;20507;-86
2022/05/19 10:42:40;;;;;;;10.35;3.38;;;;;;;;;;4991129;28;20096;-87
2022/05/19 10:45:22;;;;;;;5.45;2.60;;;;;;;;;;4976383;28;20049;-88
2022/05/19 10:47:54;;;;;;;6.22;3.03;;;;;;;;;;4980281;28;20058;-86
2022/05/19 10:50:20;;;;;;;10.55;3.17;;;;;;;;;;4993722;28;20073;-87
2022/05/19 10:52:55;;;;;;;12.38;2.50;;;;;;;;;;4992391;28;20481;-86
2022/05/19 10:55:25;;;;;;;5.00;2.42;;;;;;;;;;4992133;28;20053;-87
2022/05/19 10:58:10;;;;;;;14.25;2.92;;;;;;;;;;4992259;28;20026;-87
2022/05/19 11:01:05;;;;;;;5.25;2.67;;;;;;;;;;4992399;28;20050;-87
2022/05/19 11:03:41;;;;;;;3.28;2.72;;;;;;;;;;4988052;28;20118;-87
2022/05/19 11:06:26;;;;;;;6.05;2.95;;;;;;;;;;4993631;28;20018;-87
2022/05/19 11:09:04;;;;;;;5.97;2.58;;;;;;;;;;4993906;28;20026;-87
2022/05/19 11:11:38;;;;;;;6.88;2.40;;;;;;;;;;4993358;28;20484;-87
2022/05/19 11:14:19;;;;;;;7.95;2.35;;;;;;;;;;4994283;28;20121;-87
2022/05/19 11:16:45;;;;;;;6.55;2.40;;;;;;;;;;4993976;28;20029;-87
2022/05/19 11:19:29;;;;;;;7.45;2.58;;;;;;;;;;4992617;28;20035;-87
2022/05/19 11:22:03;;;;;;;4.20;2.45;;;;;;;;;;4993772;28;20023;-88
2022/05/19 11:27:48;;;;;;;8.77;2.58;;;;;;;;;;4994916;28;20127;-86
2022/05/19 11:30:18;;;;;;;13.02;3.00;;;;;;;;;;5027810;23;20033;-87
2022/05/19 11:32:44;;;;;;;5.15;2.30;;;;;;;;;;5015068;28;20029;-87
2022/05/19 11:35:13;;;;;;;6.18;2.00;;;;;;;;;;5013232;28;20041;-87
2022/05/19 11:37:52;;;;;;;9.88;3.58;;;;;;;;;;5014148;28;20038;-88
2022/05/19 11:40:38;;;;;;;12.00;2.67;;;;;;;;;;5013554;28;20022;-87
2022/05/19 11:43:43;;;;;;;6.55;2.60;;;;;;;;;;4996664;28;20038;-88
2022/05/19 11:46:11;;;;;;;8.52;2.60;;;;;;;;;;4973019;28;20035;-89
2022/05/19 11:57:20;;;;;;;6.80;2.40;;;;;;;;;;5016908;28;20045;-88
2022/05/19 11:59:50;;;;;;;7.75;2.35;;;;;;;;;;5005884;28;20036;-88
2022/05/19 12:02:20;;;;;;;9.73;2.65;;;;;;;;;;5015321;28;20014;-88
2022/05/19 12:04:48;;;;;;;10.47;2.97;;;;;;;;;;5013967;28;20189;-87
2022/05/19 12:07:22;;;;;;;8.93;2.67;;;;;;;;;;5023174;28;20019;-88
2022/05/19 12:09:58;;;;;;;5.43;2.22;;;;;;;;;;5029833;28;20033;-88
2022/05/19 12:12:26;;;;;;;4.15;2.50;;;;;;;;;;4996769;28;20022;-88
2022/05/19 12:15:15;;;;;;;8.70;2.78;;;;;;;;;;5013635;28;20037;-88
2022/05/19 12:18:01;;;;;;;8.43;2.75;;;;;;;;;;5010817;28;20117;-87
2022/05/19 12:20:39;;;;;;;7.00;2.70;;;;;;;;;;5010232;28;20026;-87
2022/05/19 12:23:15;;;;;;;6.40;2.22;;;;;;;;;;5019671;28;20101;-89
2022/05/19 12:25:43;;;;;;;3.75;2.47;;;;;;;;;;5024539;28;20030;-88
2022/05/19 12:28:30;;;;;;;11.38;3.00;;;;;;;;;;4993123;28;20037;-88
2022/05/19 12:33:53;;;;;;;8.15;2.88;;;;;;;;;;5015199;28;20121;-89
2022/05/19 12:36:25;;;;;;;9.52;3.15;;;;;;;;;;5012396;28;20037;-89
2022/05/19 12:38:52;;;;;;;10.88;3.30;;;;;;;;;;5003648;28;20104;-88
2022/05/19 12:41:24;;;;;;;3.92;2.30;;;;;;;;;;5013898;28;20021;-87
2022/05/19 12:43:51;;;;;;;7.70;2.92;;;;;;;;;;5011554;28;20022;-88
2022/05/19 12:46:38;;;;;;;7.82;3.17;;;;;;;;;;5012961;28;20041;-88
2022/05/19 12:49:23;;;;;;;4.35;2.85;;;;;;;;;;5013292;28;20038;-87
2022/05/19 12:51:57;;;;;;;7.00;2.83;;;;;;;;;;5005250;28;20753;-88
2022/05/19 12:54:25;;;;;;;7.80;3.58;;;;;;;;;;5015685;28;20033;-88
2022/05/19 12:56:58;;;;;;;7.25;2.65;;;;;;;;;;5003807;28;20022;-91
2022/05/19 12:59:33;;;;;;;12.80;3.00;;;;;;;;;;5010333;28;20041;-88
2022/05/19 13:02:00;;;;;;;4.22;2.75;;;;;;;;;;5000762;28;20050;-89
2022/05/19 13:04:29;;;;;;;6.53;2.72;;;;;;;;;;4990240;28;20514;-90
2022/05/19 13:10:32;;;;;;;6.85;2.80;;;;;;;;;;5012426;28;20034;-89
2022/05/19 13:13:29;;;;;;;8.88;2.95;;;;;;;;;;5012527;28;20046;-92
2022/05/19 13:19:00;;;;;;;6.78;3.08;;;;;;;;;;5008615;28;20084;-89
2022/05/19 14:17:48;;;;;;;;;;;;;;;;;;;;;
2022/05/19 14:28:06;;;;;;;7.63;3.00;;;;;;;;;;5035493;26;20041;-88
2022/05/19 14:30:37;;;;;;;12.68;3.00;;;;;;;;;;5039118;28;20494;-88
2022/05/19 14:33:05;;;;;;;10.80;3.25;;;;;;;;;;5052447;28;20470;-86
2022/05/19 14:35:39;;;;;;;11.32;3.20;;;;;;;;;;5053151;28;20112;-87
2022/05/19 14:38:13;;;;;;;10.13;3.05;;;;;;;;;;5053625;28;20032;-87
2022/05/19 14:43:25;;;;;;;8.00;3.53;;;;;;;;;;5074324;28;20119;-89
2022/05/19 14:45:56;;;;;;;25.33;4.63;;;;;;;;;;5073851;28;20462;-88
2022/05/19 14:48:25;;;;;;;12.95;3.53;;;;;;;;;;5074200;28;20115;-89
2022/05/19 14:50:54;;;;;;;14.30;3.10;;;;;;;;;;5056846;28;20025;-88
2022/05/19 14:53:22;;;;;;;10.00;3.25;;;;;;;;;;5062230;28;20039;-87
2022/05/19 14:56:06;;;;;;;5.63;2.80;;;;;;;;;;5054483;28;20108;-88
2022/05/19 14:58:49;;;;;;;6.00;3.28;;;;;;;;;;5052357;28;20151;-87
2022/05/19 15:01:18;;;;;;;9.90;3.05;;;;;;;;;;5051774;28;20039;-88
2022/05/19 15:03:52;;;;;;;12.65;3.45;;;;;;;;;;5055016;28;20021;-91
2022/05/19 15:06:21;;;;;;;10.13;3.63;;;;;;;;;;5054053;28;20025;-90
2022/05/19 15:09:07;;;;;;;22.00;3.63;;;;;;;;;;5054107;28;20041;-91
2022/05/19 15:12:25;;;;;;;7.75;3.30;;;;;;;;;;5055977;28;20056;-90
2022/05/19 15:14:59;;;;;;;11.70;3.28;;;;;;;;;;4971453;28;20035;-90
2022/05/19 15:17:33;;;;;;;12.60;4.05;;;;;;;;;;5054260;28;20037;-89
2022/05/19 15:19:59;;;;;;;6.78;3.22;;;;;;;;;;5055123;28;20025;-89
2022/05/19 15:22:37;;;;;;;8.82;3.28;;;;;;;;;;5044075;28;20021;-89
2022/05/19 15:25:47;;;;;;;9.77;3.53;;;;;;;;;;5046761;28;20033;-90
2022/05/19 15:28:14;;;;;;;7.88;3.53;;;;;;;;;;5043726;28;20491;-88
2022/05/19 15:30:48;;;;;;;10.02;3.53;;;;;;;;;;5043269;28;20071;-88
2022/05/19 15:33:28;;;;;;;11.38;3.85;;;;;;;;;;5032819;28;20108;-90
2022/05/19 15:36:00;;;;;;;7.88;3.35;;;;;;;;;;5045543;28;20061;-89
2022/05/19 15:38:32;;;;;;;7.93;3.72;;;;;;;;;;5049410;28;20034;-87
2022/05/19 16:26:34;;;;;;;9.43;3.28;;;;;;;;;;710913;22;21547;-88
2022/05/19 16:29:00;;;;;;;7.75;3.30;;;;;;;;;;5032030;28;20041;-89
2022/05/19 16:31:26;;;;;;;11.75;3.58;;;;;;;;;;5045317;28;20028;-88
2022/05/19 16:33:52;;;;;;;8.48;3.45;;;;;;;;;;5050586;28;20025;-88
2022/05/19 16:36:19;;;;;;;8.18;3.50;;;;;;;;;;5052080;28;20063;-88
2022/05/19 16:38:45;;;;;;;10.05;4.45;;;;;;;;;;5050230;28;20025;-88
2022/05/19 16:49:08;;;;;;;10.20;3.75;;;;;;;;;;5011202;26;20119;-89
2022/05/19 16:51:34;;;;;;;8.88;3.67;;;;;;;;;;5000015;28;20022;-89
2022/05/19 16:59:37;;;;;;;8.63;3.53;;;;;;;;;;4993396;28;20105;-90
2022/05/19 17:04:51;;;;;;;10.93;3.88;;;;;;;;;;5060690;23;20069;-89
2022/05/19 17:07:17;;;;;;;13.13;3.97;;;;;;;;;;5038041;28;20033;-89
2022/05/19 17:09:59;;;;;;;8.50;4.05;;;;;;;;;;5052082;28;20056;-90
2022/05/19 17:12:31;;;;;;;10.65;4.10;;;;;;;;;;5012316;28;20038;-89
2022/05/19 17:15:23;;;;;;;10.52;3.80;;;;;;;;;;5013827;28;20033;-89
2022/05/19 17:17:52;;;;;;;10.38;3.47;;;;;;;;;;5011610;28;20034;-89
2022/05/19 17:20:20;;;;;;;10.82;3.70;;;;;;;;;;5011950;28;20022;-89
2022/05/19 17:22:49;;;;;;;8.57;4.03;;;;;;;;;;5026411;28;20022;-89
2022/05/19 17:25:24;;;;;;;14.15;4.00;;;;;;;;;;5030040;28;20438;-89
2022/05/19 17:28:16;;;;;;;11.27;3.72;;;;;;;;;;5032768;28;20026;-89
2022/05/19 17:33:09;;;;;;;;;;;;;;;;;;5014328;28;20048;-87
2022/05/19 17:35:39;;;;;;;10.05;4.78;;;;;;;;;;5011348;28;19909;-87
2022/05/19 17:38:05;;;;;;;11.40;3.78;;;;;;;;;;5013565;28;20084;-87
2022/05/19 17:43:45;;;;;;;7.22;4.05;;;;;;;;;;4974631;28;20030;-87
2022/05/19 17:46:13;;;;;;;8.45;4.00;;;;;;;;;;4995694;28;20046;-87